sensor_id;sensor_type;location;lat;lon;timestamp;temperature;humidity
7516;DHT22;3799;47.184;8.538;2022-12-29T00:02:01;4.60;99.90
7516;DHT22;3799;47.184;8.538;2022-12-29T00:04:28;4.50;99.90
7516;DHT22;3799;47.184;8.538;2022-12-29T00:06:55;4.60;99.90
7516;DHT22;3799;47.184;8.538;2022-12-29T00:09:22;4.60;99.90
7516;DHT22;3799;47.184;8.538;2022-12-29T00:11:52;4.60;99.90
7516;DHT22;3799;47.184;8.538;2022-12-29T00:14:19;4.70;99.90
7516;DHT22;3799;47.184;8.538;2022-12-29T00:17:04;4.60;99.90
7516;DHT22;3799;47.184;8.538;2022-12-29T00:19:34;4.60;99.90
7516;DHT22;3799;47.184;8.538;2022-12-29T00:22:22;4.90;99.90
7516;DHT22;3799;47.184;8.538;2022-12-29T00:25:09;4.70;99.90
7516;DHT22;3799;47.184;8.538;2022-12-29T00:27:54;4.80;99.90
7516;DHT22;3799;47.184;8.538;2022-12-29T00:30:40;4.80;99.90
7516;DHT22;3799;47.184;8.538;2022-12-29T00:33:29;4.90;99.90
7516;DHT22;3799;47.184;8.538;2022-12-29T00:36:18;4.90;99.90
7516;DHT22;3799;47.184;8.538;2022-12-29T00:38:56;5.00;99.90
7516;DHT22;3799;47.184;8.538;2022-12-29T00:41:43;4.80;99.90
7516;DHT22;3799;47.184;8.538;2022-12-29T00:44:29;4.90;99.90
7516;DHT22;3799;47.184;8.538;2022-12-29T00:46:58;4.90;99.90
7516;DHT22;3799;47.184;8.538;2022-12-29T00:49:30;5.00;99.90
7516;DHT22;3799;47.184;8.538;2022-12-29T00:54:24;5.10;99.90
7516;DHT22;3799;47.184;8.538;2022-12-29T00:56:52;4.90;99.90
7516;DHT22;3799;47.184;8.538;2022-12-29T00:59:20;4.90;99.90
7516;DHT22;3799;47.184;8.538;2022-12-29T01:01:49;5.10;99.90
7516;DHT22;3799;47.184;8.538;2022-12-29T01:04:17;4.80;99.90
7516;DHT22;3799;47.184;8.538;2022-12-29T01:06:44;5.10;99.90
7516;DHT22;3799;47.184;8.538;2022-12-29T01:09:13;4.90;99.90
7516;DHT22;3799;47.184;8.538;2022-12-29T01:11:59;4.80;99.90
7516;DHT22;3799;47.184;8.538;2022-12-29T01:14:27;4.80;99.90
7516;DHT22;3799;47.184;8.538;2022-12-29T01:16:55;4.80;99.90
7516;DHT22;3799;47.184;8.538;2022-12-29T01:19:22;4.70;99.90
7516;DHT22;3799;47.184;8.538;2022-12-29T01:21:50;4.80;99.90
7516;DHT22;3799;47.184;8.538;2022-12-29T01:24:18;4.90;99.90
7516;DHT22;3799;47.184;8.538;2022-12-29T01:26:46;4.90;99.90
7516;DHT22;3799;47.184;8.538;2022-12-29T01:29:13;4.80;99.90
7516;DHT22;3799;47.184;8.538;2022-12-29T01:31:41;5.10;99.90
7516;DHT22;3799;47.184;8.538;2022-12-29T01:34:10;4.90;99.90
7516;DHT22;3799;47.184;8.538;2022-12-29T01:36:38;5.00;99.90
7516;DHT22;3799;47.184;8.538;2022-12-29T01:39:04;4.80;99.90
7516;DHT22;3799;47.184;8.538;2022-12-29T01:41:33;5.10;99.90
7516;DHT22;3799;47.184;8.538;2022-12-29T01:44:00;5.00;99.90
7516;DHT22;3799;47.184;8.538;2022-12-29T01:46:41;5.30;99.90
7516;DHT22;3799;47.184;8.538;2022-12-29T01:49:22;4.90;99.90
7516;DHT22;3799;47.184;8.538;2022-12-29T01:51:51;4.80;99.90
7516;DHT22;3799;47.184;8.538;2022-12-29T01:54:26;4.90;99.90
7516;DHT22;3799;47.184;8.538;2022-12-29T01:56:57;5.20;99.90
7516;DHT22;3799;47.184;8.538;2022-12-29T01:59:29;5.10;99.90
7516;DHT22;3799;47.184;8.538;2022-12-29T02:01:58;5.10;99.90
7516;DHT22;3799;47.184;8.538;2022-12-29T02:04:26;5.10;99.90
7516;DHT22;3799;47.184;8.538;2022-12-29T02:07:06;5.20;99.90
7516;DHT22;3799;47.184;8.538;2022-12-29T02:09:35;5.10;99.90
7516;DHT22;3799;47.184;8.538;2022-12-29T02:12:02;5.20;99.90
7516;DHT22;3799;47.184;8.538;2022-12-29T02:14:30;5.10;99.90
7516;DHT22;3799;47.184;8.538;2022-12-29T02:22:14;5.30;99.90
7516;DHT22;3799;47.184;8.538;2022-12-29T02:27:47;5.40;99.90
7516;DHT22;3799;47.184;8.538;2022-12-29T02:30:55;5.30;99.90
7516;DHT22;3799;47.184;8.538;2022-12-29T02:33:30;5.40;99.90
7516;DHT22;3799;47.184;8.538;2022-12-29T02:36:30;5.70;99.90
7516;DHT22;3799;47.184;8.538;2022-12-29T02:39:12;5.50;99.90
7516;DHT22;3799;47.184;8.538;2022-12-29T02:42:07;5.90;99.90
7516;DHT22;3799;47.184;8.538;2022-12-29T02:44:58;5.70;99.90
7516;DHT22;3799;47.184;8.538;2022-12-29T02:47:40;5.90;99.90
7516;DHT22;3799;47.184;8.538;2022-12-29T02:50:25;6.00;99.90
7516;DHT22;3799;47.184;8.538;2022-12-29T02:52:58;5.70;99.90
7516;DHT22;3799;47.184;8.538;2022-12-29T02:55:26;5.50;99.90
7516;DHT22;3799;47.184;8.538;2022-12-29T03:00:41;5.70;99.90
7516;DHT22;3799;47.184;8.538;2022-12-29T03:03:51;6.00;99.90
7516;DHT22;3799;47.184;8.538;2022-12-29T03:14:58;6.10;99.90
7516;DHT22;3799;47.184;8.538;2022-12-29T03:17:58;6.10;99.90
7516;DHT22;3799;47.184;8.538;2022-12-29T03:20:39;6.20;99.90
7516;DHT22;3799;47.184;8.538;2022-12-29T03:23:08;6.20;99.90
7516;DHT22;3799;47.184;8.538;2022-12-29T03:25:41;5.90;99.90
7516;DHT22;3799;47.184;8.538;2022-12-29T03:28:39;6.30;99.90
7516;DHT22;3799;47.184;8.538;2022-12-29T03:31:08;6.30;99.90
7516;DHT22;3799;47.184;8.538;2022-12-29T03:33:37;6.20;99.90
7516;DHT22;3799;47.184;8.538;2022-12-29T03:36:08;6.20;99.90
7516;DHT22;3799;47.184;8.538;2022-12-29T03:38:47;6.20;99.90
7516;DHT22;3799;47.184;8.538;2022-12-29T03:41:21;6.00;99.90
7516;DHT22;3799;47.184;8.538;2022-12-29T03:43:49;6.10;99.90
7516;DHT22;3799;47.184;8.538;2022-12-29T03:46:17;6.30;99.90
7516;DHT22;3799;47.184;8.538;2022-12-29T03:48:44;6.00;99.90
7516;DHT22;3799;47.184;8.538;2022-12-29T03:51:11;6.20;99.90
7516;DHT22;3799;47.184;8.538;2022-12-29T03:53:37;6.10;99.90
7516;DHT22;3799;47.184;8.538;2022-12-29T03:56:04;6.30;99.90
7516;DHT22;3799;47.184;8.538;2022-12-29T03:58:31;6.00;99.90
7516;DHT22;3799;47.184;8.538;2022-12-29T04:00:59;6.10;99.90
7516;DHT22;3799;47.184;8.538;2022-12-29T04:03:27;6.30;99.90
7516;DHT22;3799;47.184;8.538;2022-12-29T04:05:54;6.30;99.90
7516;DHT22;3799;47.184;8.538;2022-12-29T04:08:20;6.30;99.90
7516;DHT22;3799;47.184;8.538;2022-12-29T04:10:48;6.30;99.90
7516;DHT22;3799;47.184;8.538;2022-12-29T04:13:16;6.00;99.90
7516;DHT22;3799;47.184;8.538;2022-12-29T04:15:43;6.30;99.90
7516;DHT22;3799;47.184;8.538;2022-12-29T04:18:12;5.90;99.90
7516;DHT22;3799;47.184;8.538;2022-12-29T04:20:39;6.20;99.90
7516;DHT22;3799;47.184;8.538;2022-12-29T04:23:31;6.20;99.90
7516;DHT22;3799;47.184;8.538;2022-12-29T04:25:59;6.20;99.90
7516;DHT22;3799;47.184;8.538;2022-12-29T04:28:26;6.20;99.90
7516;DHT22;3799;47.184;8.538;2022-12-29T04:30:54;6.10;99.90
7516;DHT22;3799;47.184;8.538;2022-12-29T04:33:21;6.00;99.90
7516;DHT22;3799;47.184;8.538;2022-12-29T04:35:48;6.30;99.90
7516;DHT22;3799;47.184;8.538;2022-12-29T04:38:16;5.90;99.90
7516;DHT22;3799;47.184;8.538;2022-12-29T04:40:44;5.90;99.90
7516;DHT22;3799;47.184;8.538;2022-12-29T04:43:12;5.70;99.90
7516;DHT22;3799;47.184;8.538;2022-12-29T04:45:46;5.70;99.90
7516;DHT22;3799;47.184;8.538;2022-12-29T04:48:14;5.80;99.90
7516;DHT22;3799;47.184;8.538;2022-12-29T04:50:41;5.30;99.90
7516;DHT22;3799;47.184;8.538;2022-12-29T04:53:09;5.50;99.90
7516;DHT22;3799;47.184;8.538;2022-12-29T04:55:35;5.40;99.90
7516;DHT22;3799;47.184;8.538;2022-12-29T04:58:02;5.50;99.90
7516;DHT22;3799;47.184;8.538;2022-12-29T05:00:29;5.40;99.90
7516;DHT22;3799;47.184;8.538;2022-12-29T05:02:57;5.60;99.90
7516;DHT22;3799;47.184;8.538;2022-12-29T05:05:24;5.30;99.90
7516;DHT22;3799;47.184;8.538;2022-12-29T05:07:51;5.40;99.90
7516;DHT22;3799;47.184;8.538;2022-12-29T05:10:18;5.60;99.90
7516;DHT22;3799;47.184;8.538;2022-12-29T05:12:45;5.40;99.90
7516;DHT22;3799;47.184;8.538;2022-12-29T05:15:12;5.50;99.90
7516;DHT22;3799;47.184;8.538;2022-12-29T05:17:40;5.40;99.90
7516;DHT22;3799;47.184;8.538;2022-12-29T05:20:07;5.50;99.90
7516;DHT22;3799;47.184;8.538;2022-12-29T05:22:34;5.40;99.90
7516;DHT22;3799;47.184;8.538;2022-12-29T05:25:04;5.60;99.90
7516;DHT22;3799;47.184;8.538;2022-12-29T05:27:31;5.50;99.90
7516;DHT22;3799;47.184;8.538;2022-12-29T05:29:59;5.50;99.90
7516;DHT22;3799;47.184;8.538;2022-12-29T05:32:28;5.40;99.90
7516;DHT22;3799;47.184;8.538;2022-12-29T05:34:55;5.50;99.90
7516;DHT22;3799;47.184;8.538;2022-12-29T05:37:22;5.40;99.90
7516;DHT22;3799;47.184;8.538;2022-12-29T05:39:49;5.70;99.90
7516;DHT22;3799;47.184;8.538;2022-12-29T05:42:16;5.70;99.90
7516;DHT22;3799;47.184;8.538;2022-12-29T05:44:43;5.60;99.90
7516;DHT22;3799;47.184;8.538;2022-12-29T05:47:12;5.90;99.90
7516;DHT22;3799;47.184;8.538;2022-12-29T05:49:40;5.80;99.90
7516;DHT22;3799;47.184;8.538;2022-12-29T05:52:06;5.70;99.90
7516;DHT22;3799;47.184;8.538;2022-12-29T05:54:33;5.70;99.90
7516;DHT22;3799;47.184;8.538;2022-12-29T05:57:02;5.60;99.90
7516;DHT22;3799;47.184;8.538;2022-12-29T05:59:29;5.60;99.90
7516;DHT22;3799;47.184;8.538;2022-12-29T06:01:56;5.60;99.90
7516;DHT22;3799;47.184;8.538;2022-12-29T06:04:24;5.70;99.90
7516;DHT22;3799;47.184;8.538;2022-12-29T06:06:50;5.70;99.90
7516;DHT22;3799;47.184;8.538;2022-12-29T06:09:17;6.20;99.90
7516;DHT22;3799;47.184;8.538;2022-12-29T06:11:44;5.80;99.90
7516;DHT22;3799;47.184;8.538;2022-12-29T06:14:11;5.90;99.90
7516;DHT22;3799;47.184;8.538;2022-12-29T06:16:38;5.90;99.90
7516;DHT22;3799;47.184;8.538;2022-12-29T06:19:05;5.90;99.90
7516;DHT22;3799;47.184;8.538;2022-12-29T06:21:32;6.00;99.90
7516;DHT22;3799;47.184;8.538;2022-12-29T06:23:59;6.20;99.90
7516;DHT22;3799;47.184;8.538;2022-12-29T06:26:29;6.20;99.90
7516;DHT22;3799;47.184;8.538;2022-12-29T06:28:56;5.90;99.90
7516;DHT22;3799;47.184;8.538;2022-12-29T06:31:23;6.00;99.90
7516;DHT22;3799;47.184;8.538;2022-12-29T06:33:50;6.00;99.90
7516;DHT22;3799;47.184;8.538;2022-12-29T06:36:16;5.90;99.90
7516;DHT22;3799;47.184;8.538;2022-12-29T06:38:43;6.30;99.90
7516;DHT22;3799;47.184;8.538;2022-12-29T06:41:10;6.20;99.90
7516;DHT22;3799;47.184;8.538;2022-12-29T06:43:37;6.10;99.90
7516;DHT22;3799;47.184;8.538;2022-12-29T06:46:05;6.30;99.90
7516;DHT22;3799;47.184;8.538;2022-12-29T06:48:32;6.00;99.90
7516;DHT22;3799;47.184;8.538;2022-12-29T06:50:59;6.10;99.90
7516;DHT22;3799;47.184;8.538;2022-12-29T06:53:26;6.30;99.90
7516;DHT22;3799;47.184;8.538;2022-12-29T06:55:53;6.20;99.90
7516;DHT22;3799;47.184;8.538;2022-12-29T06:58:20;6.00;99.90
7516;DHT22;3799;47.184;8.538;2022-12-29T07:00:47;6.20;99.90
7516;DHT22;3799;47.184;8.538;2022-12-29T07:03:15;6.00;99.90
7516;DHT22;3799;47.184;8.538;2022-12-29T07:05:42;6.10;99.90
7516;DHT22;3799;47.184;8.538;2022-12-29T07:08:09;6.20;99.90
7516;DHT22;3799;47.184;8.538;2022-12-29T07:10:36;6.30;99.90
7516;DHT22;3799;47.184;8.538;2022-12-29T07:13:03;6.60;99.90
7516;DHT22;3799;47.184;8.538;2022-12-29T07:15:30;6.30;99.90
7516;DHT22;3799;47.184;8.538;2022-12-29T07:17:57;6.60;99.90
7516;DHT22;3799;47.184;8.538;2022-12-29T07:20:24;6.30;99.90
7516;DHT22;3799;47.184;8.538;2022-12-29T07:22:53;6.30;99.90
7516;DHT22;3799;47.184;8.538;2022-12-29T07:25:20;6.30;99.90
7516;DHT22;3799;47.184;8.538;2022-12-29T07:27:47;6.40;99.90
7516;DHT22;3799;47.184;8.538;2022-12-29T07:30:15;6.70;99.90
7516;DHT22;3799;47.184;8.538;2022-12-29T07:32:43;6.40;99.90
7516;DHT22;3799;47.184;8.538;2022-12-29T07:35:09;6.80;99.90
7516;DHT22;3799;47.184;8.538;2022-12-29T07:37:36;6.60;99.90
7516;DHT22;3799;47.184;8.538;2022-12-29T07:40:03;6.80;99.90
7516;DHT22;3799;47.184;8.538;2022-12-29T07:42:31;6.90;99.90
7516;DHT22;3799;47.184;8.538;2022-12-29T07:45:00;6.80;99.90
7516;DHT22;3799;47.184;8.538;2022-12-29T07:47:27;6.90;99.90
7516;DHT22;3799;47.184;8.538;2022-12-29T07:49:54;6.80;99.90
7516;DHT22;3799;47.184;8.538;2022-12-29T07:52:21;6.90;99.90
7516;DHT22;3799;47.184;8.538;2022-12-29T07:54:48;6.90;99.90
7516;DHT22;3799;47.184;8.538;2022-12-29T07:57:15;6.90;99.90
7516;DHT22;3799;47.184;8.538;2022-12-29T07:59:42;7.00;99.90
7516;DHT22;3799;47.184;8.538;2022-12-29T08:02:11;7.00;99.90
7516;DHT22;3799;47.184;8.538;2022-12-29T08:04:38;7.00;99.90
7516;DHT22;3799;47.184;8.538;2022-12-29T08:07:05;7.00;99.90
7516;DHT22;3799;47.184;8.538;2022-12-29T08:09:32;6.80;99.90
7516;DHT22;3799;47.184;8.538;2022-12-29T08:11:59;6.90;99.90
7516;DHT22;3799;47.184;8.538;2022-12-29T08:14:26;6.90;99.90
7516;DHT22;3799;47.184;8.538;2022-12-29T08:16:53;6.90;99.90
7516;DHT22;3799;47.184;8.538;2022-12-29T08:19:20;6.90;99.90
7516;DHT22;3799;47.184;8.538;2022-12-29T08:21:47;6.60;99.90
7516;DHT22;3799;47.184;8.538;2022-12-29T08:24:14;6.60;99.90
7516;DHT22;3799;47.184;8.538;2022-12-29T08:26:41;6.70;99.90
7516;DHT22;3799;47.184;8.538;2022-12-29T08:29:07;6.90;99.90
7516;DHT22;3799;47.184;8.538;2022-12-29T08:31:34;7.00;99.90
7516;DHT22;3799;47.184;8.538;2022-12-29T08:34:02;6.60;99.90
7516;DHT22;3799;47.184;8.538;2022-12-29T08:36:30;6.70;99.90
7516;DHT22;3799;47.184;8.538;2022-12-29T08:38:57;6.80;99.90
7516;DHT22;3799;47.184;8.538;2022-12-29T08:41:24;6.70;99.90
7516;DHT22;3799;47.184;8.538;2022-12-29T08:43:50;6.80;99.90
7516;DHT22;3799;47.184;8.538;2022-12-29T08:46:17;6.90;99.90
7516;DHT22;3799;47.184;8.538;2022-12-29T08:48:44;6.90;99.90
7516;DHT22;3799;47.184;8.538;2022-12-29T08:51:11;6.80;99.90
7516;DHT22;3799;47.184;8.538;2022-12-29T08:53:38;6.90;99.90
7516;DHT22;3799;47.184;8.538;2022-12-29T08:56:06;6.70;99.90
7516;DHT22;3799;47.184;8.538;2022-12-29T08:58:34;6.90;99.90
7516;DHT22;3799;47.184;8.538;2022-12-29T09:01:57;6.70;99.90
7516;DHT22;3799;47.184;8.538;2022-12-29T09:04:24;7.10;99.90
7516;DHT22;3799;47.184;8.538;2022-12-29T09:06:52;7.20;99.90
7516;DHT22;3799;47.184;8.538;2022-12-29T09:09:19;7.30;99.90
7516;DHT22;3799;47.184;8.538;2022-12-29T09:11:46;7.20;99.90
7516;DHT22;3799;47.184;8.538;2022-12-29T09:14:13;7.20;99.90
7516;DHT22;3799;47.184;8.538;2022-12-29T09:16:40;7.50;99.90
7516;DHT22;3799;47.184;8.538;2022-12-29T09:19:26;7.10;99.90
7516;DHT22;3799;47.184;8.538;2022-12-29T09:21:53;7.40;99.90
7516;DHT22;3799;47.184;8.538;2022-12-29T09:24:20;7.40;99.90
7516;DHT22;3799;47.184;8.538;2022-12-29T09:26:47;7.70;99.90
7516;DHT22;3799;47.184;8.538;2022-12-29T09:29:14;7.50;99.90
7516;DHT22;3799;47.184;8.538;2022-12-29T09:31:41;7.50;99.90
7516;DHT22;3799;47.184;8.538;2022-12-29T09:34:08;7.70;99.90
7516;DHT22;3799;47.184;8.538;2022-12-29T09:36:34;7.80;99.90
7516;DHT22;3799;47.184;8.538;2022-12-29T09:39:01;7.80;99.90
7516;DHT22;3799;47.184;8.538;2022-12-29T09:41:44;7.80;99.90
7516;DHT22;3799;47.184;8.538;2022-12-29T09:44:31;7.80;99.90
7516;DHT22;3799;47.184;8.538;2022-12-29T09:47:02;7.90;99.90
7516;DHT22;3799;47.184;8.538;2022-12-29T09:52:22;8.40;99.90
7516;DHT22;3799;47.184;8.538;2022-12-29T09:54:56;8.40;99.90
7516;DHT22;3799;47.184;8.538;2022-12-29T10:00:26;8.70;99.90
7516;DHT22;3799;47.184;8.538;2022-12-29T10:02:59;8.30;99.90
7516;DHT22;3799;47.184;8.538;2022-12-29T10:05:38;8.80;99.90
7516;DHT22;3799;47.184;8.538;2022-12-29T10:10:56;8.80;99.90
7516;DHT22;3799;47.184;8.538;2022-12-29T10:13:32;8.70;99.90
7516;DHT22;3799;47.184;8.538;2022-12-29T10:16:10;8.80;99.90
7516;DHT22;3799;47.184;8.538;2022-12-29T10:24:16;8.60;99.90
7516;DHT22;3799;47.184;8.538;2022-12-29T10:26:46;8.90;99.90
7516;DHT22;3799;47.184;8.538;2022-12-29T10:29:24;8.60;99.90
7516;DHT22;3799;47.184;8.538;2022-12-29T10:32:18;8.90;99.90
7516;DHT22;3799;47.184;8.538;2022-12-29T10:34:51;8.80;99.90
7516;DHT22;3799;47.184;8.538;2022-12-29T10:37:47;9.00;99.90
7516;DHT22;3799;47.184;8.538;2022-12-29T10:42:54;8.80;99.90
7516;DHT22;3799;47.184;8.538;2022-12-29T10:45:26;9.10;99.90
7516;DHT22;3799;47.184;8.538;2022-12-29T10:48:09;8.70;99.90
7516;DHT22;3799;47.184;8.538;2022-12-29T10:50:37;9.00;99.90
7516;DHT22;3799;47.184;8.538;2022-12-29T10:53:15;9.00;99.90
7516;DHT22;3799;47.184;8.538;2022-12-29T10:55:45;9.00;99.90
7516;DHT22;3799;47.184;8.538;2022-12-29T10:58:13;9.00;99.90
7516;DHT22;3799;47.184;8.538;2022-12-29T11:00:42;9.20;99.90
7516;DHT22;3799;47.184;8.538;2022-12-29T11:06:01;9.00;99.90
7516;DHT22;3799;47.184;8.538;2022-12-29T11:08:35;8.90;99.90
7516;DHT22;3799;47.184;8.538;2022-12-29T11:11:09;9.10;99.90
7516;DHT22;3799;47.184;8.538;2022-12-29T11:14:11;9.40;99.90
7516;DHT22;3799;47.184;8.538;2022-12-29T11:16:40;9.40;99.90
7516;DHT22;3799;47.184;8.538;2022-12-29T11:19:22;9.50;99.90
7516;DHT22;3799;47.184;8.538;2022-12-29T11:21:50;9.40;99.90
7516;DHT22;3799;47.184;8.538;2022-12-29T11:24:26;9.50;99.90
7516;DHT22;3799;47.184;8.538;2022-12-29T11:27:17;9.70;99.90
7516;DHT22;3799;47.184;8.538;2022-12-29T11:29:46;9.80;99.90
7516;DHT22;3799;47.184;8.538;2022-12-29T11:32:33;10.20;99.90
7516;DHT22;3799;47.184;8.538;2022-12-29T11:35:00;10.50;99.10
7516;DHT22;3799;47.184;8.538;2022-12-29T11:37:29;10.60;96.70
7516;DHT22;3799;47.184;8.538;2022-12-29T11:42:38;10.90;90.50
7516;DHT22;3799;47.184;8.538;2022-12-29T11:47:53;10.70;90.50
7516;DHT22;3799;47.184;8.538;2022-12-29T11:50:24;11.20;91.20
7516;DHT22;3799;47.184;8.538;2022-12-29T11:52:58;10.80;90.40
7516;DHT22;3799;47.184;8.538;2022-12-29T11:55:27;10.90;90.50
7516;DHT22;3799;47.184;8.538;2022-12-29T11:57:57;11.10;91.10
7516;DHT22;3799;47.184;8.538;2022-12-29T12:00:27;11.10;92.30
7516;DHT22;3799;47.184;8.538;2022-12-29T12:03:15;11.20;93.70
7516;DHT22;3799;47.184;8.538;2022-12-29T12:05:51;10.90;94.20
7516;DHT22;3799;47.184;8.538;2022-12-29T12:08:33;11.00;94.80
7516;DHT22;3799;47.184;8.538;2022-12-29T12:11:10;10.90;95.30
7516;DHT22;3799;47.184;8.538;2022-12-29T12:16:36;11.40;96.10
7516;DHT22;3799;47.184;8.538;2022-12-29T12:19:14;11.50;96.20
7516;DHT22;3799;47.184;8.538;2022-12-29T12:21:46;11.30;95.90
7516;DHT22;3799;47.184;8.538;2022-12-29T12:24:41;11.40;95.40
7516;DHT22;3799;47.184;8.538;2022-12-29T12:27:24;11.50;94.90
7516;DHT22;3799;47.184;8.538;2022-12-29T12:30:13;11.40;95.00
7516;DHT22;3799;47.184;8.538;2022-12-29T12:32:52;11.50;95.40
7516;DHT22;3799;47.184;8.538;2022-12-29T12:38:16;11.80;95.70
7516;DHT22;3799;47.184;8.538;2022-12-29T12:41:07;11.80;95.90
7516;DHT22;3799;47.184;8.538;2022-12-29T12:43:49;11.70;95.80
7516;DHT22;3799;47.184;8.538;2022-12-29T12:52:32;11.70;94.50
7516;DHT22;3799;47.184;8.538;2022-12-29T13:01:00;11.70;95.50
7516;DHT22;3799;47.184;8.538;2022-12-29T13:03:41;11.80;95.20
7516;DHT22;3799;47.184;8.538;2022-12-29T13:06:25;11.80;94.90
7516;DHT22;3799;47.184;8.538;2022-12-29T13:09:07;12.10;94.70
7516;DHT22;3799;47.184;8.538;2022-12-29T13:19:40;11.70;94.80
7516;DHT22;3799;47.184;8.538;2022-12-29T13:41:50;12.10;94.00
7516;DHT22;3799;47.184;8.538;2022-12-29T13:44:27;11.60;93.40
7516;DHT22;3799;47.184;8.538;2022-12-29T13:47:07;11.80;93.70
7516;DHT22;3799;47.184;8.538;2022-12-29T13:49:39;11.60;94.10
7516;DHT22;3799;47.184;8.538;2022-12-29T13:55:23;11.40;95.00
7516;DHT22;3799;47.184;8.538;2022-12-29T14:01:15;11.20;97.10
7516;DHT22;3799;47.184;8.538;2022-12-29T14:08:47;11.20;99.90
7516;DHT22;3799;47.184;8.538;2022-12-29T14:11:16;11.10;99.90
7516;DHT22;3799;47.184;8.538;2022-12-29T14:13:46;10.90;99.90
7516;DHT22;3799;47.184;8.538;2022-12-29T14:16:25;10.80;99.90
7516;DHT22;3799;47.184;8.538;2022-12-29T14:18:53;10.60;99.90
7516;DHT22;3799;47.184;8.538;2022-12-29T14:21:23;11.00;99.90
7516;DHT22;3799;47.184;8.538;2022-12-29T14:23:54;10.90;99.90
7516;DHT22;3799;47.184;8.538;2022-12-29T14:29:16;10.90;99.90
7516;DHT22;3799;47.184;8.538;2022-12-29T14:31:43;10.80;99.90
7516;DHT22;3799;47.184;8.538;2022-12-29T14:36:56;10.70;99.90
7516;DHT22;3799;47.184;8.538;2022-12-29T14:39:31;10.70;99.90
7516;DHT22;3799;47.184;8.538;2022-12-29T14:42:00;10.90;99.90
7516;DHT22;3799;47.184;8.538;2022-12-29T14:44:29;10.70;99.90
7516;DHT22;3799;47.184;8.538;2022-12-29T14:46:57;10.60;99.90
7516;DHT22;3799;47.184;8.538;2022-12-29T14:49:27;10.40;99.90
7516;DHT22;3799;47.184;8.538;2022-12-29T14:52:13;10.70;99.90
7516;DHT22;3799;47.184;8.538;2022-12-29T14:54:45;10.70;99.90
7516;DHT22;3799;47.184;8.538;2022-12-29T14:57:26;10.60;99.90
7516;DHT22;3799;47.184;8.538;2022-12-29T15:00:00;10.30;99.90
7516;DHT22;3799;47.184;8.538;2022-12-29T15:02:38;10.80;99.90
7516;DHT22;3799;47.184;8.538;2022-12-29T15:05:25;10.60;99.90
7516;DHT22;3799;47.184;8.538;2022-12-29T15:07:53;10.40;99.90
7516;DHT22;3799;47.184;8.538;2022-12-29T15:10:22;10.30;99.90
7516;DHT22;3799;47.184;8.538;2022-12-29T15:12:53;10.30;99.90
7516;DHT22;3799;47.184;8.538;2022-12-29T15:15:22;10.20;99.90
7516;DHT22;3799;47.184;8.538;2022-12-29T15:17:50;10.00;99.90
7516;DHT22;3799;47.184;8.538;2022-12-29T15:20:28;10.30;99.90
7516;DHT22;3799;47.184;8.538;2022-12-29T15:23:04;10.20;99.90
7516;DHT22;3799;47.184;8.538;2022-12-29T15:25:36;9.90;99.90
7516;DHT22;3799;47.184;8.538;2022-12-29T15:28:05;10.00;99.90
7516;DHT22;3799;47.184;8.538;2022-12-29T15:30:33;9.70;99.90
7516;DHT22;3799;47.184;8.538;2022-12-29T15:32:59;9.80;99.90
7516;DHT22;3799;47.184;8.538;2022-12-29T15:35:37;9.90;99.90
7516;DHT22;3799;47.184;8.538;2022-12-29T15:38:16;9.80;99.90
7516;DHT22;3799;47.184;8.538;2022-12-29T15:41:14;9.80;99.90
7516;DHT22;3799;47.184;8.538;2022-12-29T15:43:53;9.50;99.90
7516;DHT22;3799;47.184;8.538;2022-12-29T15:46:23;9.70;99.90
7516;DHT22;3799;47.184;8.538;2022-12-29T15:48:50;9.50;99.90
7516;DHT22;3799;47.184;8.538;2022-12-29T15:51:21;9.50;99.90
7516;DHT22;3799;47.184;8.538;2022-12-29T15:53:54;9.60;99.90
7516;DHT22;3799;47.184;8.538;2022-12-29T15:56:21;9.60;99.90
7516;DHT22;3799;47.184;8.538;2022-12-29T15:58:50;9.40;99.90
7516;DHT22;3799;47.184;8.538;2022-12-29T16:01:19;9.40;99.90
7516;DHT22;3799;47.184;8.538;2022-12-29T16:03:51;9.50;99.90
7516;DHT22;3799;47.184;8.538;2022-12-29T16:06:36;9.40;99.90
7516;DHT22;3799;47.184;8.538;2022-12-29T16:09:06;9.50;99.90
7516;DHT22;3799;47.184;8.538;2022-12-29T16:11:39;9.30;99.90
7516;DHT22;3799;47.184;8.538;2022-12-29T16:14:10;9.40;99.90
7516;DHT22;3799;47.184;8.538;2022-12-29T16:16:42;9.40;99.90
7516;DHT22;3799;47.184;8.538;2022-12-29T16:19:34;9.20;99.90
7516;DHT22;3799;47.184;8.538;2022-12-29T16:22:09;9.00;99.90
7516;DHT22;3799;47.184;8.538;2022-12-29T16:24:39;9.20;99.90
7516;DHT22;3799;47.184;8.538;2022-12-29T16:29:56;9.10;99.90
7516;DHT22;3799;47.184;8.538;2022-12-29T16:32:29;9.20;99.90
7516;DHT22;3799;47.184;8.538;2022-12-29T16:35:25;9.20;99.90
7516;DHT22;3799;47.184;8.538;2022-12-29T16:38:19;9.10;99.90
7516;DHT22;3799;47.184;8.538;2022-12-29T16:40:59;9.10;99.90
7516;DHT22;3799;47.184;8.538;2022-12-29T16:43:31;9.00;99.90
7516;DHT22;3799;47.184;8.538;2022-12-29T16:51:03;8.90;99.90
7516;DHT22;3799;47.184;8.538;2022-12-29T16:53:35;9.10;99.90
7516;DHT22;3799;47.184;8.538;2022-12-29T16:56:19;8.90;99.90
7516;DHT22;3799;47.184;8.538;2022-12-29T16:58:49;9.00;99.90
7516;DHT22;3799;47.184;8.538;2022-12-29T17:01:16;8.90;99.90
7516;DHT22;3799;47.184;8.538;2022-12-29T17:03:54;9.10;99.90
7516;DHT22;3799;47.184;8.538;2022-12-29T17:06:24;9.00;99.90
7516;DHT22;3799;47.184;8.538;2022-12-29T17:08:51;9.10;99.90
7516;DHT22;3799;47.184;8.538;2022-12-29T17:14:37;9.00;99.90
7516;DHT22;3799;47.184;8.538;2022-12-29T17:19:46;9.10;99.90
7516;DHT22;3799;47.184;8.538;2022-12-29T17:22:17;9.10;99.90
7516;DHT22;3799;47.184;8.538;2022-12-29T17:24:44;8.90;99.90
7516;DHT22;3799;47.184;8.538;2022-12-29T17:27:27;8.70;99.90
7516;DHT22;3799;47.184;8.538;2022-12-29T17:29:58;9.00;99.90
7516;DHT22;3799;47.184;8.538;2022-12-29T17:32:26;9.10;99.90
7516;DHT22;3799;47.184;8.538;2022-12-29T17:34:53;9.10;99.90
7516;DHT22;3799;47.184;8.538;2022-12-29T17:39:50;8.90;99.90
7516;DHT22;3799;47.184;8.538;2022-12-29T17:42:18;9.10;99.90
7516;DHT22;3799;47.184;8.538;2022-12-29T17:44:46;9.00;99.90
7516;DHT22;3799;47.184;8.538;2022-12-29T17:47:12;8.80;99.90
7516;DHT22;3799;47.184;8.538;2022-12-29T17:49:41;9.10;99.90
7516;DHT22;3799;47.184;8.538;2022-12-29T17:52:13;9.00;99.90
7516;DHT22;3799;47.184;8.538;2022-12-29T17:54:50;8.90;99.90
7516;DHT22;3799;47.184;8.538;2022-12-29T17:57:19;8.90;99.90
7516;DHT22;3799;47.184;8.538;2022-12-29T17:59:46;9.20;99.90
7516;DHT22;3799;47.184;8.538;2022-12-29T18:02:27;9.10;99.90
7516;DHT22;3799;47.184;8.538;2022-12-29T18:04:57;9.00;99.90
7516;DHT22;3799;47.184;8.538;2022-12-29T18:07:28;9.00;99.90
7516;DHT22;3799;47.184;8.538;2022-12-29T18:10:02;9.00;99.90
7516;DHT22;3799;47.184;8.538;2022-12-29T18:12:34;9.10;99.90
7516;DHT22;3799;47.184;8.538;2022-12-29T18:15:04;8.80;99.90
7516;DHT22;3799;47.184;8.538;2022-12-29T18:17:31;9.00;99.90
7516;DHT22;3799;47.184;8.538;2022-12-29T18:20:01;8.80;99.90
7516;DHT22;3799;47.184;8.538;2022-12-29T18:22:27;9.00;99.90
7516;DHT22;3799;47.184;8.538;2022-12-29T18:24:55;9.10;99.90
7516;DHT22;3799;47.184;8.538;2022-12-29T18:27:22;8.90;99.90
7516;DHT22;3799;47.184;8.538;2022-12-29T18:29:49;9.00;99.90
7516;DHT22;3799;47.184;8.538;2022-12-29T18:32:17;8.90;99.90
7516;DHT22;3799;47.184;8.538;2022-12-29T18:34:44;8.80;99.90
7516;DHT22;3799;47.184;8.538;2022-12-29T18:37:11;9.10;99.90
7516;DHT22;3799;47.184;8.538;2022-12-29T18:39:41;9.00;99.90
7516;DHT22;3799;47.184;8.538;2022-12-29T18:42:16;8.70;99.90
7516;DHT22;3799;47.184;8.538;2022-12-29T18:44:44;9.00;99.90
7516;DHT22;3799;47.184;8.538;2022-12-29T18:47:11;8.60;99.90
7516;DHT22;3799;47.184;8.538;2022-12-29T18:49:38;9.00;99.90
7516;DHT22;3799;47.184;8.538;2022-12-29T18:52:05;8.60;99.90